Time;durP1;ratioP1;P1;durP2;ratioP2;P2;SDS_P1;SDS_P2;PMS_P1;PMS_P2;Temp;Humidity;BMP_temperature;BMP_pressure;BME280_temperature;BME280_humidity;BME280_pressure;Samples;Min_cycle;Max_cycle;Signal;HPM_P1;HPM_P2
2021/04/06 00:00:48;;;;;;;0.4;0.4;;;;;;;;;;;;;
2021/04/06 00:03:13;;;;;;;0.4;0.4;;;;;;;;;;;;;
2021/04/06 00:05:38;;;;;;;0.4;0.4;;;;;;;;;;;;;
2021/04/06 00:08:04;;;;;;;0.4;0.4;;;;;;;;;;;;;
2021/04/06 00:10:29;;;;;;;1;0.6;;;;;;;;;;;;;
2021/04/06 00:12:54;;;;;;;0.4;0.4;;;;;;;;;;;;;
2021/04/06 00:15:19;;;;;;;1.1;0.8;;;;;;;;;;;;;
2021/04/06 00:17:44;;;;;;;0.5;0.5;;;;;;;;;;;;;
2021/04/06 00:20:09;;;;;;;0.3;0.3;;;;;;;;;;;;;
2021/04/06 00:22:35;;;;;;;0.5;0.5;;;;;;;;;;;;;
2021/04/06 00:25:00;;;;;;;0.3;0.3;;;;;;;;;;;;;
2021/04/06 00:27:25;;;;;;;0.4;0.4;;;;;;;;;;;;;
2021/04/06 00:29:50;;;;;;;2.1;0.5;;;;;;;;;;;;;
2021/04/06 00:32:15;;;;;;;0.7;0.4;;;;;;;;;;;;;
2021/04/06 00:34:41;;;;;;;0.3;0.3;;;;;;;;;;;;;
2021/04/06 00:37:05;;;;;;;0.4;0.4;;;;;;;;;;;;;
2021/04/06 00:39:31;;;;;;;0.7;0.6;;;;;;;;;;;;;
2021/04/06 00:41:56;;;;;;;0.3;0.3;;;;;;;;;;;;;
2021/04/06 00:44:21;;;;;;;0.4;0.4;;;;;;;;;;;;;
2021/04/06 00:46:46;;;;;;;0.5;0.5;;;;;;;;;;;;;
2021/04/06 00:49:11;;;;;;;0.8;0.4;;;;;;;;;;;;;
2021/04/06 00:51:37;;;;;;;0.4;0.4;;;;;;;;;;;;;
2021/04/06 00:54:03;;;;;;;0.4;0.4;;;;;;;;;;;;;
2021/04/06 00:56:28;;;;;;;0.3;0.3;;;;;;;;;;;;;
2021/04/06 00:58:54;;;;;;;0.3;0.3;;;;;;;;;;;;;
2021/04/06 01:01:19;;;;;;;0.3;0.3;;;;;;;;;;;;;
2021/04/06 01:03:44;;;;;;;0.5;0.5;;;;;;;;;;;;;
2021/04/06 01:06:09;;;;;;;0.3;0.3;;;;;;;;;;;;;
2021/04/06 01:08:34;;;;;;;0.6;0.6;;;;;;;;;;;;;
2021/04/06 01:11:00;;;;;;;0.3;0.3;;;;;;;;;;;;;
2021/04/06 01:13:25;;;;;;;0.6;0.6;;;;;;;;;;;;;
2021/04/06 01:15:50;;;;;;;0.4;0.4;;;;;;;;;;;;;
2021/04/06 01:18:15;;;;;;;0.7;0.4;;;;;;;;;;;;;
2021/04/06 01:20:40;;;;;;;0.5;0.5;;;;;;;;;;;;;
2021/04/06 01:23:05;;;;;;;0.5;0.5;;;;;;;;;;;;;
2021/04/06 01:25:33;;;;;;;0.5;0.5;;;;;;;;;;;;;
2021/04/06 01:27:56;;;;;;;1.2;0.5;;;;;;;;;;;;;
2021/04/06 01:30:22;;;;;;;1.4;0.9;;;;;;;;;;;;;
2021/04/06 01:32:48;;;;;;;0.2;0.2;;;;;;;;;;;;;
2021/04/06 01:35:13;;;;;;;0.3;0.3;;;;;;;;;;;;;
2021/04/06 01:37:38;;;;;;;0.4;0.4;;;;;;;;;;;;;
2021/04/06 01:40:04;;;;;;;0.4;0.4;;;;;;;;;;;;;
2021/04/06 01:42:31;;;;;;;0.3;0.3;;;;;;;;;;;;;
2021/04/06 01:44:55;;;;;;;0.5;0.5;;;;;;;;;;;;;
2021/04/06 01:47:19;;;;;;;0.4;0.4;;;;;;;;;;;;;
2021/04/06 01:49:44;;;;;;;0.3;0.3;;;;;;;;;;;;;
2021/04/06 01:52:09;;;;;;;0.4;0.4;;;;;;;;;;;;;
2021/04/06 01:54:36;;;;;;;0.3;0.3;;;;;;;;;;;;;
2021/04/06 01:57:04;;;;;;;0.3;0.3;;;;;;;;;;;;;
2021/04/06 01:59:28;;;;;;;2.2;0.4;;;;;;;;;;;;;
2021/04/06 02:01:54;;;;;;;0.5;0.4;;;;;;;;;;;;;
2021/04/06 02:04:15;;;;;;;0.8;0.4;;;;;;;;;;;;;
2021/04/06 02:06:40;;;;;;;0.6;0.6;;;;;;;;;;;;;
2021/04/06 02:09:05;;;;;;;0.4;0.4;;;;;;;;;;;;;
2021/04/06 02:11:31;;;;;;;0.6;0.6;;;;;;;;;;;;;
2021/04/06 02:13:56;;;;;;;0.5;0.5;;;;;;;;;;;;;
2021/04/06 02:16:24;;;;;;;2.2;0.7;;;;;;;;;;;;;
2021/04/06 02:18:49;;;;;;;2.6;0.8;;;;;;;;;;;;;
2021/04/06 02:21:15;;;;;;;0.4;0.4;;;;;;;;;;;;;
2021/04/06 02:23:40;;;;;;;0.4;0.4;;;;;;;;;;;;;
2021/04/06 02:26:06;;;;;;;1.9;1;;;;;;;;;;;;;
2021/04/06 02:28:31;;;;;;;1.5;1.4;;;;;;;;;;;;;
2021/04/06 02:30:57;;;;;;;1.5;0.9;;;;;;;;;;;;;
2021/04/06 02:33:22;;;;;;;0.6;0.5;;;;;;;;;;;;;
2021/04/06 02:35:48;;;;;;;0.7;0.5;;;;;;;;;;;;;
2021/04/06 02:38:13;;;;;;;0.4;0.3;;;;;;;;;;;;;
2021/04/06 02:40:39;;;;;;;0.4;0.4;;;;;;;;;;;;;
2021/04/06 02:43:04;;;;;;;6.8;0.5;;;;;;;;;;;;;
2021/04/06 02:45:30;;;;;;;0.5;0.5;;;;;;;;;;;;;
2021/04/06 02:47:55;;;;;;;0.6;0.6;;;;;;;;;;;;;
2021/04/06 02:50:20;;;;;;;0.5;0.4;;;;;;;;;;;;;
2021/04/06 02:52:45;;;;;;;1;0.7;;;;;;;;;;;;;
2021/04/06 02:55:10;;;;;;;1.3;0.8;;;;;;;;;;;;;
2021/04/06 02:57:35;;;;;;;0.6;0.6;;;;;;;;;;;;;
2021/04/06 03:00:00;;;;;;;0.5;0.5;;;;;;;;;;;;;
2021/04/06 03:02:25;;;;;;;1;0.8;;;;;;;;;;;;;
2021/04/06 03:04:50;;;;;;;1;0.7;;;;;;;;;;;;;
2021/04/06 03:07:16;;;;;;;0.5;0.5;;;;;;;;;;;;;
2021/04/06 03:09:41;;;;;;;0.4;0.4;;;;;;;;;;;;;
2021/04/06 03:12:06;;;;;;;3.2;0.5;;;;;;;;;;;;;
2021/04/06 03:14:31;;;;;;;0.7;0.6;;;;;;;;;;;;;
2021/04/06 03:16:57;;;;;;;0.5;0.5;;;;;;;;;;;;;
2021/04/06 03:19:23;;;;;;;0.5;0.5;;;;;;;;;;;;;
2021/04/06 03:21:49;;;;;;;1.3;0.7;;;;;;;;;;;;;
2021/04/06 03:24:14;;;;;;;0.7;0.6;;;;;;;;;;;;;
2021/04/06 03:26:39;;;;;;;0.6;0.6;;;;;;;;;;;;;
2021/04/06 03:29:05;;;;;;;2.8;1;;;;;;;;;;;;;
2021/04/06 03:31:29;;;;;;;0.7;0.7;;;;;;;;;;;;;
2021/04/06 03:33:54;;;;;;;0.6;0.6;;;;;;;;;;;;;
2021/04/06 03:36:19;;;;;;;0.6;0.6;;;;;;;;;;;;;
2021/04/06 03:38:44;;;;;;;0.3;0.3;;;;;;;;;;;;;
2021/04/06 03:41:10;;;;;;;0.6;0.6;;;;;;;;;;;;;
2021/04/06 03:43:36;;;;;;;1.5;0.9;;;;;;;;;;;;;
2021/04/06 03:46:01;;;;;;;0.4;0.4;;;;;;;;;;;;;
2021/04/06 03:48:27;;;;;;;0.5;0.5;;;;;;;;;;;;;
2021/04/06 03:50:52;;;;;;;0.6;0.6;;;;;;;;;;;;;
2021/04/06 03:53:19;;;;;;;0.7;0.5;;;;;;;;;;;;;
2021/04/06 03:55:42;;;;;;;1.1;0.8;;;;;;;;;;;;;
2021/04/06 03:58:11;;;;;;;0.7;0.7;;;;;;;;;;;;;
2021/04/06 04:02:30;;;;;;;0.6;0.6;;;;;;;-0.19;77.13867;933.0905;;;;
2021/04/06 04:04:55;;;;;;;0.6;0.6;;;;;;;-0.16;77.66895;933.1255;;;;
2021/04/06 04:07:22;;;;;;;0.4;0.4;;;;;;;-0.13;77.72949;933.0952;;;;
2021/04/06 04:09:47;;;;;;;1.6;0.9;;;;;;;-0.18;78.26465;933.0173;;;;
2021/04/06 04:12:14;;;;;;;0.4;0.4;;;;;;;-0.25;78.44238;932.997;;;;
2021/04/06 04:14:39;;;;;;;0.8;0.8;;;;;;;-0.32;78.83008;932.967;;;;
2021/04/06 04:17:06;;;;;;;0.4;0.4;;;;;;;-0.44;78.37402;932.8826;;;;
2021/04/06 04:19:29;;;;;;;0.4;0.4;;;;;;;-0.51;78.7832;932.8463;;;;
2021/04/06 04:21:55;;;;;;;0.9;0.8;;;;;;;-0.61;79.30957;932.8722;;;;
2021/04/06 04:24:20;;;;;;;0.6;0.6;;;;;;;-0.77;80.12402;932.827;;;;
2021/04/06 04:26:48;;;;;;;0.8;0.7;;;;;;;-0.84;80.27832;932.8279;;;;
2021/04/06 04:29:13;;;;;;;0.5;0.5;;;;;;;-0.89;80.62402;932.8318;;;;
2021/04/06 04:31:43;;;;;;;0.7;0.6;;;;;;;-0.95;80.04688;932.8225;;;;
2021/04/06 04:34:05;;;;;;;4.2;0.8;;;;;;;-0.95;80.04688;932.8647;;;;
2021/04/06 04:36:30;;;;;;;0.6;0.6;;;;;;;-1.05;78.87109;932.9106;;;;
2021/04/06 04:38:55;;;;;;;1.8;0.8;;;;;;;-1.36;79.41309;932.87;;;;
2021/04/06 04:41:23;;;;;;;2.1;0.6;;;;;;;-1.33;80.91699;932.9012;;;;
2021/04/06 04:43:48;;;;;;;3.4;1.6;;;;;;;-1.39;79.09668;932.9726;;;;
2021/04/06 04:46:14;;;;;;;0.5;0.5;;;;;;;-1.63;80.19336;932.9426;;;;
2021/04/06 04:48:39;;;;;;;0.7;0.7;;;;;;;-1.81;81.83203;932.915;;;;
2021/04/06 04:51:05;;;;;;;0.9;0.9;;;;;;;-1.74;82.25879;932.94;;;;
2021/04/06 04:53:30;;;;;;;0.6;0.6;;;;;;;-1.73;81.4502;932.9917;;;;
2021/04/06 04:55:56;;;;;;;0.8;0.8;;;;;;;-2;82.17383;933.0291;;;;
2021/04/06 04:58:21;;;;;;;1.3;0.9;;;;;;;-2.3;82.5127;932.9508;;;;
2021/04/06 05:00:49;;;;;;;0.7;0.7;;;;;;;-2.17;82.94922;933.0089;;;;
2021/04/06 05:03:14;;;;;;;0.7;0.7;;;;;;;-1.99;80.79004;933.0543;;;;
2021/04/06 05:05:39;;;;;;;1.4;0.7;;;;;;;-2.07;80.25391;933.0892;;;;
2021/04/06 05:08:04;;;;;;;0.4;0.4;;;;;;;-2.09;80.25;933.0611;;;;
2021/04/06 05:10:30;;;;;;;1.4;0.9;;;;;;;-2.11;80.77832;933.0438;;;;
2021/04/06 05:12:56;;;;;;;0.6;0.6;;;;;;;-2.03;80.14941;933.0122;;;;
2021/04/06 05:15:33;;;;;;;0.8;0.6;;;;;;;-2.01;79.80176;933.0486;;;;
2021/04/06 05:17:58;;;;;;;1;0.7;;;;;;;-1.86;79.43945;933.0268;;;;
2021/04/06 05:20:25;;;;;;;1.2;0.7;;;;;;;-2.14;80.7627;933.0689;;;;
2021/04/06 05:22:51;;;;;;;1.6;1.1;;;;;;;-2.33;81.71191;932.9956;;;;
2021/04/06 05:25:17;;;;;;;1.2;1.1;;;;;;;-2.22;82.15234;933.0489;;;;
2021/04/06 05:27:42;;;;;;;3.8;1.3;;;;;;;-2.15;82.56543;933.0309;;;;
2021/04/06 05:30:11;;;;;;;1.5;0.9;;;;;;;-1.99;82.20898;933.0135;;;;
2021/04/06 05:32:36;;;;;;;1.1;1;;;;;;;-1.85;81.4502;933.0641;;;;
2021/04/06 05:35:03;;;;;;;1;0.9;;;;;;;-1.67;80.77539;933.0516;;;;
2021/04/06 05:37:28;;;;;;;1.1;1;;;;;;;-1.6;80.30078;933.077;;;;
2021/04/06 05:39:55;;;;;;;1;0.7;;;;;;;-1.54;79.58984;933.0134;;;;
2021/04/06 05:42:20;;;;;;;3.7;2.1;;;;;;;-1.37;79.65527;933.0047;;;;
2021/04/06 05:44:47;;;;;;;1.2;1;;;;;;;-0.56;79.88574;932.9886;;;;
2021/04/06 05:47:13;;;;;;;1.1;1;;;;;;;0.41;74.35059;933.0258;;;;
2021/04/06 05:49:38;;;;;;;2.6;1.6;;;;;;;2.01;69.58203;933.0125;;;;
2021/04/06 05:52:04;;;;;;;1;0.8;;;;;;;2.92;65.33691;932.9853;;;;
2021/04/06 05:54:29;;;;;;;0.8;0.8;;;;;;;3.67;60.70996;932.9711;;;;
2021/04/06 05:56:56;;;;;;;1.6;1;;;;;;;4.16;58.72168;932.9589;;;;
2021/04/06 05:59:21;;;;;;;0.8;0.8;;;;;;;4.33;57.68652;932.942;;;;
2021/04/06 06:01:48;;;;;;;1.5;0.9;;;;;;;3.57;60.51465;932.9947;;;;
2021/04/06 06:04:13;;;;;;;1;0.9;;;;;;;3.29;60.20801;933.0256;;;;
2021/04/06 06:06:39;;;;;;;0.8;0.8;;;;;;;3.2;60.94629;933.0664;;;;
2021/04/06 06:09:04;;;;;;;3.9;1.8;;;;;;;4.11;58.77051;933.0892;;;;
2021/04/06 06:11:29;;;;;;;1.3;1.2;;;;;;;5.1;55.88477;932.9888;;;;
2021/04/06 06:13:54;;;;;;;1.1;1;;;;;;;6.1;52.43457;933.0258;;;;
2021/04/06 06:16:20;;;;;;;0.5;0.5;;;;;;;6.21;51.09082;933.0327;;;;
2021/04/06 06:18:45;;;;;;;0.8;0.8;;;;;;;7.93;47.33594;933.0192;;;;
2021/04/06 06:21:10;;;;;;;0.8;0.7;;;;;;;8.26;47.27051;933.0421;;;;
2021/04/06 06:23:40;;;;;;;0.6;0.5;;;;;;;9.12;44.00684;933.0328;;;;
2021/04/06 06:26:05;;;;;;;0.7;0.7;;;;;;;8.98;45.81348;932.9419;;;;
2021/04/06 06:28:34;;;;;;;0.6;0.5;;;;;;;9.71;42.36914;932.9675;;;;
2021/04/06 06:30:58;;;;;;;1;0.4;;;;;;;8.89;44.11914;932.9325;;;;
2021/04/06 06:33:24;;;;;;;0.2;0.1;;;;;;;9.3;41.76074;932.9539;;;;
2021/04/06 06:35:48;;;;;;;0.9;0.6;;;;;;;9.66;42.09082;932.9053;;;;
2021/04/06 06:38:13;;;;;;;9;0.7;;;;;;;10.35;40.58398;932.801;;;;
2021/04/06 06:40:39;;;;;;;0.5;0.5;;;;;;;10.72;40.04688;932.8439;;;;
2021/04/06 06:43:04;;;;;;;0.9;0.6;;;;;;;10.77;39.11523;932.8582;;;;
2021/04/06 06:45:29;;;;;;;1;0.9;;;;;;;10.28;41.54688;932.8541;;;;
2021/04/06 06:47:54;;;;;;;1.2;1.1;;;;;;;9.59;42.75684;932.8109;;;;
2021/04/06 06:50:19;;;;;;;2.3;1.2;;;;;;;8.85;42.37598;932.8743;;;;
2021/04/06 06:52:46;;;;;;;1.3;0.9;;;;;;;9.43;41.29395;932.796;;;;
2021/04/06 06:55:10;;;;;;;0.9;0.8;;;;;;;10.43;41.19629;932.7241;;;;
2021/04/06 06:57:37;;;;;;;0.7;0.5;;;;;;;9.89;41.52051;932.7776;;;;
2021/04/06 07:00:02;;;;;;;2.6;1;;;;;;;8.87;45.2666;932.7347;;;;
2021/04/06 07:02:27;;;;;;;0.4;0.4;;;;;;;8.32;45.58398;932.6809;;;;
2021/04/06 07:04:53;;;;;;;1.4;0.9;;;;;;;9.06;43.29492;932.5893;;;;
2021/04/06 07:07:19;;;;;;;2.4;1.3;;;;;;;9.32;41.16992;932.5425;;;;
2021/04/06 07:09:44;;;;;;;2.6;0.8;;;;;;;8.49;45.31836;932.51;;;;
2021/04/06 07:12:11;;;;;;;0.4;0.3;;;;;;;9.58;41.62695;932.5033;;;;
2021/04/06 07:14:35;;;;;;;0.5;0.5;;;;;;;9.38;42.80371;932.4942;;;;
2021/04/06 07:17:02;;;;;;;0.7;0.5;;;;;;;10.2;38.53809;932.5105;;;;
2021/04/06 07:19:27;;;;;;;0.5;0.4;;;;;;;11.03;37.57227;932.4109;;;;
2021/04/06 07:21:54;;;;;;;0.7;0.4;;;;;;;12.74;33.44043;932.367;;;;
2021/04/06 07:24:19;;;;;;;0.6;0.4;;;;;;;9.88;39.72949;932.4094;;;;
2021/04/06 07:26:44;;;;;;;0.3;0.2;;;;;;;9.63;41.95117;932.3409;;;;
2021/04/06 07:29:10;;;;;;;0.6;0.5;;;;;;;11.91;35.27734;932.3669;;;;
2021/04/06 07:31:35;;;;;;;1.2;0.6;;;;;;;12.24;36.37109;932.3504;;;;
2021/04/06 07:34:02;;;;;;;0.3;0.3;;;;;;;12.87;35.25293;932.3687;;;;
2021/04/06 07:36:27;;;;;;;0.9;0.6;;;;;;;12.76;35.1748;932.3158;;;;
2021/04/06 07:38:53;;;;;;;0.4;0.4;;;;;;;13.89;32.40137;932.3384;;;;
2021/04/06 07:41:18;;;;;;;1.6;1;;;;;;;13.95;35.10938;932.3122;;;;
2021/04/06 07:43:43;;;;;;;2.2;1;;;;;;;15.24;31.94824;932.2942;;;;
2021/04/06 07:46:10;;;;;;;0.7;0.6;;;;;;;15.9;31.83398;932.2745;;;;
2021/04/06 07:48:35;;;;;;;0.8;0.4;;;;;;;16.3;30.55566;932.3423;;;;
2021/04/06 07:51:01;;;;;;;1.1;0.7;;;;;;;15.66;31.52734;932.2952;;;;
2021/04/06 07:53:27;;;;;;;0.8;0.5;;;;;;;14.63;31.94922;932.3527;;;;
2021/04/06 07:55:52;;;;;;;0.9;0.5;;;;;;;14.04;32.32031;932.3879;;;;
2021/04/06 07:58:17;;;;;;;1.2;0.7;;;;;;;15;29.85352;932.2941;;;;
2021/04/06 08:00:43;;;;;;;1.4;0.8;;;;;;;14.92;31.46191;932.248;;;;
2021/04/06 08:03:08;;;;;;;1;0.6;;;;;;;15.44;31.1084;932.2772;;;;
2021/04/06 08:05:33;;;;;;;1.2;0.9;;;;;;;15.2;31.38965;932.2843;;;;
2021/04/06 08:07:58;;;;;;;0.3;0.3;;;;;;;14.45;31.7168;932.2405;;;;
2021/04/06 08:10:23;;;;;;;7.4;0.5;;;;;;;17.11;28.66406;932.1806;;;;
2021/04/06 08:12:49;;;;;;;0.1;0.1;;;;;;;15.86;29.4502;932.217;;;;
2021/04/06 08:15:15;;;;;;;2.7;0.4;;;;;;;15.75;28.92285;932.2267;;;;
2021/04/06 08:17:42;;;;;;;1.1;0.4;;;;;;;17.46;27.52734;932.234;;;;
2021/04/06 08:20:07;;;;;;;0.7;0.3;;;;;;;16.16;27.43457;932.2583;;;;
2021/04/06 08:22:32;;;;;;;0.3;0.3;;;;;;;16.94;26.91602;932.2134;;;;
2021/04/06 08:24:58;;;;;;;1.1;0.2;;;;;;;19.47;22.68945;932.2236;;;;
2021/04/06 08:27:23;;;;;;;0.7;0.4;;;;;;;18.14;24.50293;932.2709;;;;
2021/04/06 08:29:48;;;;;;;0.3;0.2;;;;;;;17.26;25.74121;932.2922;;;;
2021/04/06 08:32:13;;;;;;;0.1;0.1;;;;;;;16.18;28.55762;932.3069;;;;
2021/04/06 08:34:40;;;;;;;0.4;0.3;;;;;;;16.4;28.46777;932.3505;;;;
2021/04/06 08:37:03;;;;;;;0.1;0.1;;;;;;;17.38;27.23242;932.305;;;;
2021/04/06 08:39:28;;;;;;;0.4;0.2;;;;;;;17.88;25.40527;932.3136;;;;
2021/04/06 08:41:53;;;;;;;0.2;0.2;;;;;;;18.77;25.36328;932.2562;;;;
2021/04/06 08:44:19;;;;;;;0.5;0.5;;;;;;;17.86;23.83691;932.2707;;;;
2021/04/06 08:46:47;;;;;;;1;0.3;;;;;;;14.87;29.25684;932.3578;;;;
2021/04/06 08:49:10;;;;;;;0.4;0.2;;;;;;;15.72;27.55664;932.2684;;;;
2021/04/06 08:51:35;;;;;;;2;0.3;;;;;;;16.48;27.76758;932.274;;;;
2021/04/06 08:54:00;;;;;;;0.2;0.2;;;;;;;15.86;25.56641;932.2908;;;;
2021/04/06 08:56:25;;;;;;;0.3;0.3;;;;;;;14.27;27.58008;932.2634;;;;
2021/04/06 08:58:50;;;;;;;0.4;0.3;;;;;;;14.67;27.15625;932.2479;;;;
2021/04/06 09:01:16;;;;;;;1;0.4;;;;;;;14.95;30.24219;932.2506;;;;
2021/04/06 09:03:41;;;;;;;0.2;0.2;;;;;;;15.62;27.57422;932.2263;;;;
2021/04/06 09:06:07;;;;;;;0.6;0.4;;;;;;;15.78;26.58984;932.2994;;;;
2021/04/06 09:08:32;;;;;;;0.4;0.2;;;;;;;12.98;28.39551;932.3141;;;;
2021/04/06 09:10:57;;;;;;;0.2;0.2;;;;;;;11.75;33.81055;932.2778;;;;
2021/04/06 09:13:23;;;;;;;0.9;0.3;;;;;;;10.65;34.98145;932.4426;;;;
2021/04/06 09:15:55;;;;;;;0.1;0.1;;;;;;;9.7;37.11523;932.3951;;;;
2021/04/06 09:18:20;;;;;;;0.1;0.1;;;;;;;9.43;34.58691;932.3645;;;;
2021/04/06 09:20:48;;;;;;;0;0;;;;;;;9.23;35.18555;932.3935;;;;
2021/04/06 09:23:13;;;;;;;2.2;0.2;;;;;;;8.27;39.38867;932.4386;;;;
2021/04/06 09:25:38;;;;;;;2;0.6;;;;;;;6.71;39.57422;932.4462;;;;
2021/04/06 09:28:03;;;;;;;0.8;0.5;;;;;;;5.89;40.71875;932.413;;;;
2021/04/06 09:30:36;;;;;;;0.2;0.2;;;;;;;5.88;41.79004;932.4792;;;;
2021/04/06 09:32:53;;;;;;;0.4;0.4;;;;;;;5.7;44.08594;932.4258;;;;
2021/04/06 09:35:19;;;;;;;0.2;0.2;;;;;;;5.4;47.76855;932.4095;;;;
2021/04/06 09:37:44;;;;;;;0.5;0.3;;;;;;;5.08;50.30273;932.3794;;;;
2021/04/06 09:40:11;;;;;;;0.2;0.2;;;;;;;5.38;47.7998;932.3909;;;;
2021/04/06 09:42:36;;;;;;;0.5;0.2;;;;;;;5.68;51.25391;932.4169;;;;
2021/04/06 09:45:03;;;;;;;3;0.4;;;;;;;5.73;47.71582;932.3594;;;;
2021/04/06 09:47:28;;;;;;;0.3;0.3;;;;;;;5.45;47.45801;932.354;;;;
2021/04/06 09:49:54;;;;;;;0.2;0.2;;;;;;;5.64;44.39648;932.3261;;;;
2021/04/06 09:52:19;;;;;;;0.3;0.3;;;;;;;5.68;47.48242;932.4137;;;;
2021/04/06 09:54:46;;;;;;;1.6;0.8;;;;;;;5.63;48.01953;932.3669;;;;
2021/04/06 09:57:11;;;;;;;2.7;0.4;;;;;;;5.32;45.46973;932.416;;;;
2021/04/06 09:59:36;;;;;;;0.9;0.4;;;;;;;5.41;45.0166;932.3627;;;;
2021/04/06 10:02:02;;;;;;;0.1;0.1;;;;;;;5.8;46.27637;932.3328;;;;
2021/04/06 10:04:27;;;;;;;0.8;0.4;;;;;;;5.57;48.18164;932.3071;;;;
2021/04/06 10:06:54;;;;;;;0.3;0.3;;;;;;;5.36;48.19238;932.2864;;;;
2021/04/06 10:09:19;;;;;;;0.7;0.4;;;;;;;5.24;49.10352;932.2874;;;;
2021/04/06 10:11:46;;;;;;;1;0.9;;;;;;;5.08;49.96387;932.3003;;;;
2021/04/06 10:14:11;;;;;;;0.7;0.3;;;;;;;4.94;48.26855;932.2578;;;;
2021/04/06 10:16:37;;;;;;;0.9;0.5;;;;;;;5.14;46.85938;932.2297;;;;
2021/04/06 10:19:03;;;;;;;0.2;0.2;;;;;;;5.36;49.96289;932.2233;;;;
2021/04/06 10:21:29;;;;;;;0.3;0.3;;;;;;;4.66;49.64551;932.1334;;;;
2021/04/06 10:23:54;;;;;;;0.6;0.6;;;;;;;4.25;49.56348;932.1473;;;;
2021/04/06 10:26:19;;;;;;;0.7;0.7;;;;;;;4.27;50.32031;932.1164;;;;
2021/04/06 10:28:45;;;;;;;18.2;7.7;;;;;;;4.24;49.51758;932.118;;;;
2021/04/06 10:31:11;;;;;;;23.3;14;;;;;;;4.15;51.60938;932.095;;;;
2021/04/06 10:33:38;;;;;;;1.1;1;;;;;;;4.3;45.04492;932.0334;;;;
2021/04/06 10:36:02;;;;;;;1.1;0.8;;;;;;;3.99;46.46289;932.0383;;;;
2021/04/06 10:38:27;;;;;;;1.2;0.5;;;;;;;4.04;44.35449;932.0012;;;;
2021/04/06 10:40:51;;;;;;;7;0.9;;;;;;;3.51;45.79297;931.9843;;;;
2021/04/06 10:43:17;;;;;;;0.7;0.6;;;;;;;3.49;53.77637;931.9688;;;;
2021/04/06 10:45:42;;;;;;;0.6;0.5;;;;;;;3.62;52.73633;931.8975;;;;
2021/04/06 10:48:08;;;;;;;0.4;0.4;;;;;;;3.7;50.10742;931.8666;;;;
2021/04/06 10:50:33;;;;;;;0.8;0.6;;;;;;;3.75;47.01172;931.8206;;;;
2021/04/06 10:52:59;;;;;;;0.7;0.6;;;;;;;3.57;52.14648;931.856;;;;
2021/04/06 10:55:24;;;;;;;1.7;1.4;;;;;;;3.56;53.32422;931.8233;;;;
2021/04/06 10:57:49;;;;;;;4.1;1.8;;;;;;;3.58;54.56348;931.7719;;;;
2021/04/06 11:00:14;;;;;;;1;0.5;;;;;;;3.68;54.40723;931.8219;;;;
2021/04/06 11:02:43;;;;;;;1.4;0.7;;;;;;;4.08;50.91602;931.7603;;;;
2021/04/06 11:05:09;;;;;;;0.6;0.3;;;;;;;4.56;47.94434;931.7936;;;;
2021/04/06 11:07:33;;;;;;;1.2;0.7;;;;;;;4.81;47.58984;931.7836;;;;
2021/04/06 11:09:58;;;;;;;0.4;0.3;;;;;;;5.23;45.95605;931.7346;;;;
2021/04/06 11:12:23;;;;;;;1.5;0.7;;;;;;;4.88;41.24219;931.7486;;;;
2021/04/06 11:14:49;;;;;;;1.4;1;;;;;;;4.89;46.82031;931.6857;;;;
2021/04/06 11:17:17;;;;;;;0.5;0.5;;;;;;;5.26;45.1582;931.6531;;;;
2021/04/06 11:19:42;;;;;;;0.8;0.4;;;;;;;5.68;44.83008;931.665;;;;
2021/04/06 11:22:11;;;;;;;1.4;0.8;;;;;;;5.67;44.63672;931.5724;;;;
2021/04/06 11:24:34;;;;;;;0.3;0.3;;;;;;;5.97;42.86035;931.5936;;;;
2021/04/06 11:27:00;;;;;;;0.4;0.3;;;;;;;6.13;44.99023;931.6114;;;;
2021/04/06 11:29:25;;;;;;;0.2;0.2;;;;;;;5.89;47.09961;931.6031;;;;
2021/04/06 11:31:53;;;;;;;0.3;0.3;;;;;;;5.16;43.11816;931.5421;;;;
2021/04/06 11:34:18;;;;;;;0.3;0.3;;;;;;;5.12;44.35352;931.5901;;;;
2021/04/06 11:36:45;;;;;;;0.3;0.3;;;;;;;5.47;47.74219;931.6138;;;;
2021/04/06 11:39:10;;;;;;;0.3;0.3;;;;;;;5.58;43.52148;931.5817;;;;
2021/04/06 11:41:35;;;;;;;0.2;0.2;;;;;;;5.55;42.67188;931.5472;;;;
2021/04/06 11:44:02;;;;;;;0.3;0.3;;;;;;;5.92;43.25098;931.5258;;;;
2021/04/06 11:46:28;;;;;;;0.8;0.3;;;;;;;5.95;41.36719;931.572;;;;
2021/04/06 11:48:55;;;;;;;0.7;0.5;;;;;;;6.15;41.2627;931.5406;;;;
2021/04/06 11:51:20;;;;;;;0.4;0.3;;;;;;;6.29;40.07813;931.5153;;;;
2021/04/06 11:53:47;;;;;;;0.2;0.1;;;;;;;6.14;41.27344;931.4922;;;;
2021/04/06 11:56:13;;;;;;;0.3;0.3;;;;;;;5.6;40.4873;931.462;;;;
2021/04/06 11:58:41;;;;;;;1.1;0.8;;;;;;;6.18;42.01172;931.4944;;;;
2021/04/06 12:01:06;;;;;;;0.4;0.2;;;;;;;6.04;42.78809;931.4773;;;;
2021/04/06 12:03:33;;;;;;;0.5;0.4;;;;;;;6.28;44.92676;931.5981;;;;
2021/04/06 12:06:01;;;;;;;0.3;0.3;;;;;;;6.6;41.87109;931.4177;;;;
2021/04/06 12:08:25;;;;;;;0.1;0.1;;;;;;;6.8;37.375;931.3747;;;;
2021/04/06 12:10:53;;;;;;;0.5;0.4;;;;;;;6.55;43.31543;931.4194;;;;
2021/04/06 12:13:18;;;;;;;0.7;0.6;;;;;;;6.4;42.30469;931.463;;;;
2021/04/06 12:15:44;;;;;;;0.5;0.3;;;;;;;6.17;41.76172;931.3867;;;;
2021/04/06 12:18:09;;;;;;;0.1;0.1;;;;;;;5.99;41.25879;931.3491;;;;
2021/04/06 12:20:38;;;;;;;0.3;0.3;;;;;;;6.39;41.66992;931.3719;;;;
2021/04/06 12:23:03;;;;;;;0.6;0.4;;;;;;;6.41;41.86426;931.5489;;;;
2021/04/06 12:25:35;;;;;;;1.4;0.5;;;;;;;6.04;44.96875;931.4631;;;;
2021/04/06 12:28:07;;;;;;;0.3;0.3;;;;;;;5.28;45.28418;931.464;;;;
2021/04/06 12:30:36;;;;;;;0.2;0.2;;;;;;;5.45;41.98633;931.4824;;;;
2021/04/06 12:33:02;;;;;;;0.3;0.3;;;;;;;5.37;43.76953;931.4734;;;;
2021/04/06 12:35:32;;;;;;;2.8;0.5;;;;;;;5.29;43.1543;931.3948;;;;
2021/04/06 12:37:56;;;;;;;0.6;0.2;;;;;;;5.73;43.03906;931.3617;;;;
2021/04/06 12:40:24;;;;;;;0.4;0.4;;;;;;;7.13;40.08887;931.3142;;;;
2021/04/06 12:42:49;;;;;;;0.3;0.3;;;;;;;7.5;38.70605;931.1609;;;;
2021/04/06 12:45:14;;;;;;;0.3;0.3;;;;;;;7.63;39.7041;931.1267;;;;
2021/04/06 12:47:41;;;;;;;0.3;0.3;;;;;;;7.39;40;931.1453;;;;
2021/04/06 12:50:07;;;;;;;1.3;0.4;;;;;;;7.57;42.0459;931.198;;;;
2021/04/06 12:52:34;;;;;;;0.4;0.4;;;;;;;7.25;42.10449;931.0695;;;;
2021/04/06 12:54:59;;;;;;;0.3;0.2;;;;;;;7.22;43.49609;931.0557;;;;
2021/04/06 12:57:27;;;;;;;0.7;0.5;;;;;;;6.03;46.05273;931.1682;;;;
2021/04/06 12:59:53;;;;;;;0.7;0.4;;;;;;;6.25;46.95898;931.0609;;;;
2021/04/06 13:02:22;;;;;;;0.4;0.4;;;;;;;7.9;41.83984;930.9048;;;;
2021/04/06 13:04:52;;;;;;;0.2;0.2;;;;;;;9.43;37.46875;930.866;;;;
2021/04/06 13:07:17;;;;;;;0.4;0.4;;;;;;;9.91;36.17578;930.7753;;;;
2021/04/06 13:09:45;;;;;;;0.4;0.3;;;;;;;9.47;36.54883;930.7459;;;;
2021/04/06 13:12:10;;;;;;;0.6;0.3;;;;;;;8.46;35.20117;930.6946;;;;
2021/04/06 13:14:36;;;;;;;2;0.5;;;;;;;7.8;36.92969;930.6764;;;;
2021/04/06 13:17:01;;;;;;;1.1;0.8;;;;;;;8.01;43.67773;930.575;;;;
2021/04/06 13:19:26;;;;;;;0.5;0.3;;;;;;;9;39.58105;930.5464;;;;
2021/04/06 13:21:53;;;;;;;0.3;0.2;;;;;;;8.02;37.99219;930.5723;;;;
2021/04/06 13:24:18;;;;;;;0.6;0.4;;;;;;;8.53;37.93457;930.5623;;;;
2021/04/06 13:26:44;;;;;;;0.3;0.3;;;;;;;9.14;37.66992;930.5899;;;;
2021/04/06 13:29:09;;;;;;;0.4;0.3;;;;;;;9.67;37.12402;930.4492;;;;
2021/04/06 13:31:36;;;;;;;0.2;0.2;;;;;;;8.69;34.9248;930.5109;;;;
2021/04/06 13:34:02;;;;;;;0.6;0.4;;;;;;;8.18;36.89355;930.4543;;;;
2021/04/06 13:36:28;;;;;;;0;0;;;;;;;8.36;36.96582;930.4963;;;;
2021/04/06 13:38:53;;;;;;;0.2;0.1;;;;;;;8.49;41.44336;930.4678;;;;
2021/04/06 13:41:19;;;;;;;0.7;0.2;;;;;;;8.05;37.80176;930.4774;;;;
2021/04/06 13:43:44;;;;;;;0.5;0.3;;;;;;;6.97;41.02441;930.4867;;;;
2021/04/06 13:46:12;;;;;;;2.1;0.5;;;;;;;6.56;39.97852;930.597;;;;
2021/04/06 13:48:37;;;;;;;0.3;0.2;;;;;;;6.54;39.56934;930.4846;;;;
2021/04/06 13:51:03;;;;;;;0.2;0.2;;;;;;;6.26;43.20703;930.4548;;;;
2021/04/06 13:53:28;;;;;;;1.7;0.5;;;;;;;6.15;41.18359;930.4871;;;;
2021/04/06 13:55:54;;;;;;;0.6;0.3;;;;;;;6;41.56445;930.382;;;;
2021/04/06 13:58:19;;;;;;;0.3;0.3;;;;;;;5.98;43.53906;930.4205;;;;
2021/04/06 14:00:46;;;;;;;2.6;0.5;;;;;;;5.99;40.77246;930.3258;;;;
2021/04/06 14:03:13;;;;;;;0.5;0.5;;;;;;;5.79;41.2168;930.4805;;;;
2021/04/06 14:05:38;;;;;;;2.4;0.6;;;;;;;6.08;42.52148;930.4949;;;;
2021/04/06 14:08:03;;;;;;;0.5;0.3;;;;;;;6.27;43.20801;930.4763;;;;
2021/04/06 14:10:29;;;;;;;0.3;0.3;;;;;;;6.17;40.12402;930.3752;;;;
2021/04/06 14:12:54;;;;;;;0.4;0.3;;;;;;;5.97;43.65234;930.4084;;;;
2021/04/06 14:15:23;;;;;;;0.5;0.4;;;;;;;5.95;40.50977;930.4462;;;;
2021/04/06 14:17:52;;;;;;;0.3;0.2;;;;;;;5.62;41.25684;930.4462;;;;
2021/04/06 14:20:16;;;;;;;0.5;0.4;;;;;;;5.52;42.01367;930.3947;;;;
2021/04/06 14:22:44;;;;;;;0.2;0.2;;;;;;;5.49;39.87793;930.3928;;;;
2021/04/06 14:25:09;;;;;;;2.7;0.4;;;;;;;5.31;40.75391;930.3786;;;;
2021/04/06 14:27:33;;;;;;;0.3;0.3;;;;;;;5.22;40.21387;930.3644;;;;
2021/04/06 14:30:03;;;;;;;0.3;0.3;;;;;;;5.12;41.32129;930.4352;;;;
2021/04/06 14:32:30;;;;;;;0.5;0.3;;;;;;;5.03;43.00391;930.4249;;;;
2021/04/06 14:34:55;;;;;;;0.4;0.4;;;;;;;4.58;40.37988;930.3592;;;;
2021/04/06 14:37:20;;;;;;;0.4;0.4;;;;;;;4.5;42.01465;930.423;;;;
2021/04/06 14:39:45;;;;;;;1.9;0.7;;;;;;;3.86;44.65039;930.4202;;;;
2021/04/06 14:42:10;;;;;;;0.2;0.2;;;;;;;3.84;43.84961;930.459;;;;
2021/04/06 14:44:36;;;;;;;1.2;0.6;;;;;;;3.87;50.51953;930.5425;;;;
2021/04/06 14:47:01;;;;;;;0.8;0.6;;;;;;;3.6;48.29688;930.5485;;;;
2021/04/06 14:49:27;;;;;;;0.8;0.4;;;;;;;3.31;50.49805;930.7272;;;;
2021/04/06 14:51:52;;;;;;;0.4;0.3;;;;;;;3.23;53.4502;930.6976;;;;
2021/04/06 14:54:19;;;;;;;2;0.9;;;;;;;3.22;55.5498;930.6573;;;;
2021/04/06 14:56:44;;;;;;;1.8;1.1;;;;;;;3.37;55.12012;930.6711;;;;
2021/04/06 14:59:10;;;;;;;3.8;0.7;;;;;;;3.58;53.34961;930.637;;;;
2021/04/06 15:01:36;;;;;;;3;1.2;;;;;;;3.54;51.27734;930.5966;;;;
2021/04/06 15:04:03;;;;;;;5.9;0.8;;;;;;;3.18;55.41992;930.5868;;;;
2021/04/06 15:06:28;;;;;;;0.5;0.5;;;;;;;3.12;55.58105;930.5491;;;;
2021/04/06 15:08:54;;;;;;;0.6;0.6;;;;;;;3.27;56.64453;930.5239;;;;
2021/04/06 15:11:19;;;;;;;1.1;0.9;;;;;;;3.41;56.76465;930.5056;;;;
2021/04/06 15:13:44;;;;;;;0.3;0.3;;;;;;;3.27;56.12891;930.4894;;;;
2021/04/06 15:16:11;;;;;;;0.4;0.4;;;;;;;3.42;56.12598;930.5262;;;;
2021/04/06 15:18:36;;;;;;;0.3;0.3;;;;;;;3.8;54.17676;930.452;;;;
2021/04/06 15:21:02;;;;;;;0.4;0.4;;;;;;;3.88;55.34473;930.5853;;;;
2021/04/06 15:23:28;;;;;;;0.6;0.4;;;;;;;4.01;53.5957;930.5072;;;;
2021/04/06 15:25:55;;;;;;;1;0.8;;;;;;;3.62;52.7373;930.5463;;;;
2021/04/06 15:28:20;;;;;;;1.5;0.6;;;;;;;3.61;57.09473;930.5625;;;;
2021/04/06 15:30:45;;;;;;;0.4;0.3;;;;;;;3.82;55.19043;930.4328;;;;
2021/04/06 15:33:10;;;;;;;2.5;1;;;;;;;3.81;55.45801;930.3813;;;;
2021/04/06 15:35:36;;;;;;;0.6;0.6;;;;;;;3.73;56.79688;930.3777;;;;
2021/04/06 15:38:01;;;;;;;0.3;0.3;;;;;;;3.5;53.72168;930.3353;;;;